Norwegian Breakaway — C6ZJ3 — position and weather

sailwx.info

Track history (hours):
 
Tides and Currents Weather Stations Pressure Air Temp Water Temp Dewpoint Dewpoint Depression Visibility Wind Speed Wind Dir Waves Ship Positions

Norwegian Breakaway

Last reported at 2017-May-25 08:00 UTC. Time now 2017-May-25 10:36 UTC.
Position N 32°18' W 064°48'.

Length 325 m; draft 8.6 m.

Type: Ship. MMSI: 311050800.

Wind from 190 at 22 knots

Barometer 1018.0 mb
Air temperature 23.0 ° C
Visibility: greater than 2.2 NM
Dewpoint 23.0 ° C
Water temperature 26.0 ° C

Date/timePositionNaut miles runAvg speedWind from/ knotsBaromVisibWave heightAir tempDewpointWater temp
2017-May-25 08:00N 32°18' W 064°48'16 0.7 190 / 221018.0 2.2 23.023.026.0
2017-May-24 08:00N 32°24' W 064°30'15012.5 210 / 211015.0 2.2 22.022.025.0
2017-May-23 20:00N 34°00' W 066°48'14211.8 220 / 261015.0 2.2 23.023.025.0
2017-May-23 08:00N 35°42' W 068°48'11610.5 190 / 231015.0 2.2 21.021.027.0
2017-May-22 21:00N 37°12' W 070°18'12810.7 180 / 191017.0 2.2 22.022.028.0
2017-May-22 09:00N 38°48' W 072°06'5111.8 120 / 231020.0 2.2 15.015.018.0
2017-May-22 04:41N 39°28' W 072°46'310.8
2017-May-22 04:23N 39°31' W 072°49'410.9
2017-May-22 04:00N 39°34' W 072°52'610.9
2017-May-22 03:26N 39°39' W 072°57'511.0
2017-May-22 02:57N 39°43' W 073°02'511.1
2017-May-22 02:30N 39°47' W 073°06'611.1
2017-May-22 02:00N 39°51' W 073°10'611.3
2017-May-22 01:30N 39°56' W 073°15'611.3
2017-May-22 01:00N 39°60' W 073°20'3211.3
2017-May-21 22:13N 40°24' W 073°46'211.2
2017-May-21 22:00N 40°26' W 073°48'613.0
2017-May-21 21:31N 40°29' W 073°55'815.5
2017-May-21 21:00N 40°35' W 074°02'713.4
2017-May-21 20:30N 40°42' W 074°02'4 8.5
2017-May-21 20:00N 40°46' W 073°60'0 0.0
2017-May-21 19:29N 40°46' W 073°60'0 0.0
2017-May-21 18:59N 40°46' W 073°60'0 0.0
2017-May-21 18:29N 40°46' W 073°60'0 0.0
2017-May-21 17:59N 40°46' W 073°60'0 0.0
2017-May-21 17:29N 40°46' W 073°60'0 0.0
2017-May-21 16:59N 40°46' W 073°60'0 0.0
2017-May-21 16:29N 40°46' W 073°60'0 0.0
2017-May-21 15:59N 40°46' W 073°60'0 0.0
2017-May-21 15:29N 40°46' W 073°60'0 0.0
2017-May-21 14:59N 40°46' W 073°60'0 0.0
2017-May-21 14:29N 40°46' W 073°60'0 0.0
2017-May-21 13:29N 40°46' W 073°60'0 0.0
2017-May-21 12:59N 40°46' W 073°60'0 0.0
2017-May-21 12:29N 40°46' W 073°60'0 0.0
2017-May-21 11:59N 40°46' W 073°60'0 0.0
2017-May-21 11:26N 40°46' W 073°60'0 0.0
2017-May-21 11:00N 40°46' W 073°60'1 2.3
2017-May-21 10:30N 40°45' W 074°01'5 9.8
2017-May-21 10:00N 40°40' W 074°03'714.6
2017-May-21 09:30N 40°33' W 074°02'917.5
2017-May-21 09:00N 40°28' W 073°52'713.5
2017-May-21 08:30N 40°25' W 073°44'714.6
2017-May-21 08:00N 40°20' W 073°37'714.8
2017-May-21 07:30N 40°16' W 073°29'714.6
2017-May-21 07:00N 40°12' W 073°21'817.1
2017-May-21 06:30N 40°06' W 073°13'918.4
2017-May-21 06:00N 39°59' W 073°05'1118.5
2017-May-21 05:26N 39°51' W 072°56'818.5
2017-May-21 05:00N 39°45' W 072°50'918.3
2017-May-21 04:30N 39°38' W 072°42'  
2017-May-16 08:00N 34°12' W 069°48'14713.4 320 / 151014.0 2.2 18.018.024.0
2017-May-15 21:00N 35°24' W 072°24'16113.4 290 / 201010.0 2.2 23.021.524.0
2017-May-15 09:00N 38°00' W 073°12'   320 / 251005.0 2.2 12.010.114.0
Track history (hours):
 
Tides and Currents Weather Stations Pressure Air Temp Water Temp Dewpoint Dewpoint Depression Visibility Wind Speed Wind Dir Waves Ship Positions

Norwegian Breakaway

Last reported at 2017-May-25 08:00 UTC. Time now 2017-May-25 10:36 UTC.
Position N 32°18' W 064°48'.

Length 325 m; draft 8.6 m.

Type: Ship. MMSI: 311050800.

Wind from 190 at 22 knots

Barometer 1018.0 mb
Air temperature 23.0 ° C
Visibility: greater than 2.2 NM
Dewpoint 23.0 ° C
Water temperature 26.0 ° C

Date/timePositionNaut miles runAvg speedWind from/ knotsBaromVisibWave heightAir tempDewpointWater temp
2017-May-25 08:00N 32°18' W 064°48'16 0.7 190 / 221018.0 2.2 23.023.026.0
2017-May-24 08:00N 32°24' W 064°30'15012.5 210 / 211015.0 2.2 22.022.025.0
2017-May-23 20:00N 34°00' W 066°48'14211.8 220 / 261015.0 2.2 23.023.025.0
2017-May-23 08:00N 35°42' W 068°48'11610.5 190 / 231015.0 2.2 21.021.027.0
2017-May-22 21:00N 37°12' W 070°18'12810.7 180 / 191017.0 2.2 22.022.028.0
2017-May-22 09:00N 38°48' W 072°06'5111.8 120 / 231020.0 2.2 15.015.018.0
2017-May-22 04:41N 39°28' W 072°46'310.8
2017-May-22 04:23N 39°31' W 072°49'410.9
2017-May-22 04:00N 39°34' W 072°52'610.9
2017-May-22 03:26N 39°39' W 072°57'511.0
2017-May-22 02:57N 39°43' W 073°02'511.1
2017-May-22 02:30N 39°47' W 073°06'611.1
2017-May-22 02:00N 39°51' W 073°10'611.3
2017-May-22 01:30N 39°56' W 073°15'611.3
2017-May-22 01:00N 39°60' W 073°20'3211.3
2017-May-21 22:13N 40°24' W 073°46'211.2
2017-May-21 22:00N 40°26' W 073°48'613.0
2017-May-21 21:31N 40°29' W 073°55'815.5
2017-May-21 21:00N 40°35' W 074°02'713.4
2017-May-21 20:30N 40°42' W 074°02'4 8.5
2017-May-21 20:00N 40°46' W 073°60'0 0.0
2017-May-21 19:29N 40°46' W 073°60'0 0.0
2017-May-21 18:59N 40°46' W 073°60'0 0.0
2017-May-21 18:29N 40°46' W 073°60'0 0.0
2017-May-21 17:59N 40°46' W 073°60'0 0.0
2017-May-21 17:29N 40°46' W 073°60'0 0.0
2017-May-21 16:59N 40°46' W 073°60'0 0.0
2017-May-21 16:29N 40°46' W 073°60'0 0.0
2017-May-21 15:59N 40°46' W 073°60'0 0.0
2017-May-21 15:29N 40°46' W 073°60'0 0.0
2017-May-21 14:59N 40°46' W 073°60'0 0.0
2017-May-21 14:29N 40°46' W 073°60'0 0.0
2017-May-21 13:29N 40°46' W 073°60'0 0.0
2017-May-21 12:59N 40°46' W 073°60'0 0.0
2017-May-21 12:29N 40°46' W 073°60'0 0.0
2017-May-21 11:59N 40°46' W 073°60'0 0.0
2017-May-21 11:26N 40°46' W 073°60'0 0.0
2017-May-21 11:00N 40°46' W 073°60'1 2.3
2017-May-21 10:30N 40°45' W 074°01'5 9.8
2017-May-21 10:00N 40°40' W 074°03'714.6
2017-May-21 09:30N 40°33' W 074°02'917.5
2017-May-21 09:00N 40°28' W 073°52'713.5
2017-May-21 08:30N 40°25' W 073°44'714.6
2017-May-21 08:00N 40°20' W 073°37'714.8
2017-May-21 07:30N 40°16' W 073°29'714.6
2017-May-21 07:00N 40°12' W 073°21'817.1
2017-May-21 06:30N 40°06' W 073°13'918.4
2017-May-21 06:00N 39°59' W 073°05'1118.5
2017-May-21 05:26N 39°51' W 072°56'818.5
2017-May-21 05:00N 39°45' W 072°50'918.3
2017-May-21 04:30N 39°38' W 072°42'  
2017-May-16 08:00N 34°12' W 069°48'14713.4 320 / 151014.0 2.2 18.018.024.0
2017-May-15 21:00N 35°24' W 072°24'16113.4 290 / 201010.0 2.2 23.021.524.0
2017-May-15 09:00N 38°00' W 073°12'   320 / 251005.0 2.2 12.010.114.0

Dump ship's entire track history